Time;durP1;ratioP1;P1;durP2;ratioP2;P2;SDS_P1;SDS_P2;PMS_P1;PMS_P2;Temp;Humidity;BMP_temperature;BMP_pressure;BME280_temperature;BME280_humidity;BME280_pressure;Samples;Min_cycle;Max_cycle;Signal;HPM_P1;HPM_P2
2023/06/06 00:02:13;;;;;;;6.33;5.03;;;22.50;42.20;;;;;;4973864;28;20184;-56
2023/06/06 00:04:39;;;;;;;6.50;5.90;;;22.50;42.40;;;;;;4973832;28;20342;-53
2023/06/06 00:07:08;;;;;;;6.73;6.00;;;22.50;42.30;;;;;;4974003;28;20219;-53
2023/06/06 00:09:34;;;;;;;6.70;5.63;;;22.50;42.80;;;;;;4973771;28;20185;-57
2023/06/06 00:12:00;;;;;;;8.20;5.70;;;22.40;42.40;;;;;;4973471;28;20420;-53
2023/06/06 00:14:27;;;;;;;5.93;5.20;;;22.40;42.20;;;;;;4973834;28;20475;-53
2023/06/06 00:16:55;;;;;;;7.63;6.80;;;22.40;42.40;;;;;;4973538;28;20255;-56
2023/06/06 00:19:22;;;;;;;5.67;5.07;;;22.40;43.50;;;;;;4973397;28;20443;-53
2023/06/06 00:21:48;;;;;;;7.00;5.07;;;22.40;43.80;;;;;;4973613;28;20470;-53
2023/06/06 00:24:15;;;;;;;8.20;6.70;;;22.30;43.50;;;;;;4973570;28;20419;-56
2023/06/06 00:26:41;;;;;;;9.53;5.60;;;22.30;43.90;;;;;;4973588;28;20849;-53
2023/06/06 00:29:07;;;;;;;9.27;6.40;;;22.30;43.80;;;;;;4973312;28;20407;-53
2023/06/06 00:31:33;;;;;;;6.57;5.97;;;22.20;43.20;;;;;;4973463;28;20634;-55
2023/06/06 00:33:58;;;;;;;6.27;5.67;;;22.20;43.60;;;;;;4973436;28;20182;-56
2023/06/06 00:36:24;;;;;;;6.93;6.23;;;22.20;43.40;;;;;;4973284;28;20230;-55
2023/06/06 00:38:50;;;;;;;7.10;5.70;;;22.20;43.30;;;;;;4973105;28;20187;-57
2023/06/06 00:41:16;;;;;;;5.87;5.37;;;22.20;43.70;;;;;;4973314;28;20176;-54
2023/06/06 00:43:43;;;;;;;6.07;5.57;;;22.20;43.90;;;;;;4973269;28;20419;-54
2023/06/06 00:46:10;;;;;;;7.13;6.07;;;22.20;44.10;;;;;;4973217;28;20211;-56
2023/06/06 00:48:36;;;;;;;6.70;6.10;;;22.10;44.50;;;;;;4955840;28;20922;-54
2023/06/06 00:51:02;;;;;;;7.27;5.83;;;22.10;44.50;;;;;;4973114;28;20415;-54
2023/06/06 00:53:28;;;;;;;6.40;5.77;;;22.20;43.90;;;;;;4972993;28;20756;-54
2023/06/06 00:55:54;;;;;;;6.43;5.57;;;22.20;43.60;;;;;;4973030;28;20470;-56
2023/06/06 00:58:20;;;;;;;7.47;6.00;;;22.10;43.70;;;;;;4973311;28;20439;-54
2023/06/06 01:00:47;;;;;;;8.27;7.20;;;22.10;43.90;;;;;;4972823;28;20832;-54
2023/06/06 01:03:14;;;;;;;8.53;6.50;;;22.10;44.00;;;;;;4973013;28;20412;-55
2023/06/06 01:05:40;;;;;;;6.07;5.53;;;22.10;43.80;;;;;;4972877;28;20473;-53
2023/06/06 01:08:07;;;;;;;7.10;6.03;;;22.10;43.70;;;;;;4972891;28;20435;-54
2023/06/06 01:10:39;;;;;;;6.07;5.47;;;22.10;44.10;;;;;;4972949;28;20466;-55
2023/06/06 01:13:20;;;;;;;7.07;6.37;;;22.00;44.40;;;;;;4973111;28;20454;-56
2023/06/06 01:15:53;;;;;;;6.97;6.27;;;22.00;44.30;;;;;;4972999;28;20409;-57
2023/06/06 01:18:21;;;;;;;6.83;5.53;;;22.00;44.30;;;;;;4972868;28;20805;-55
2023/06/06 01:20:48;;;;;;;7.27;6.20;;;22.00;44.00;;;;;;4972945;28;20411;-53
2023/06/06 01:23:14;;;;;;;7.57;6.30;;;21.90;44.20;;;;;;4972913;28;20407;-56
2023/06/06 01:25:41;;;;;;;6.37;5.77;;;21.90;44.30;;;;;;4972787;28;20462;-57
2023/06/06 01:28:13;;;;;;;8.00;6.60;;;21.80;44.80;;;;;;4972771;28;20945;-54
2023/06/06 01:30:41;;;;;;;8.10;6.27;;;21.80;44.70;;;;;;4972763;28;20422;-54
2023/06/06 01:33:26;;;;;;;8.00;6.70;;;21.80;45.00;;;;;;4972604;28;20442;-53
2023/06/06 01:35:58;;;;;;;7.80;6.07;;;21.80;44.90;;;;;;4973080;28;20391;-56
2023/06/06 01:38:26;;;;;;;7.70;6.20;;;21.80;45.10;;;;;;4973002;28;20431;-55
2023/06/06 01:40:56;;;;;;;7.33;6.67;;;21.80;45.40;;;;;;4972540;28;20411;-55
2023/06/06 01:43:25;;;;;;;9.43;6.90;;;21.70;45.50;;;;;;4972638;28;20906;-57
2023/06/06 01:45:52;;;;;;;9.10;6.90;;;21.70;45.50;;;;;;4972668;28;20474;-56
2023/06/06 01:48:18;;;;;;;7.73;6.17;;;21.60;45.30;;;;;;4972651;28;20478;-57
2023/06/06 01:50:45;;;;;;;8.70;7.30;;;21.70;45.40;;;;;;4972488;28;20411;-55
2023/06/06 01:53:11;;;;;;;11.20;6.93;;;21.60;45.90;;;;;;4976079;28;20771;-56
2023/06/06 01:55:38;;;;;;;7.40;6.70;;;21.70;45.90;;;;;;4976172;28;20430;-55
2023/06/06 01:58:05;;;;;;;7.17;6.43;;;21.70;46.00;;;;;;4975920;28;20988;-53
2023/06/06 02:00:31;;;;;;;7.97;6.60;;;21.70;46.10;;;;;;4975846;28;20497;-55
2023/06/06 02:02:57;;;;;;;10.93;6.40;;;21.70;46.40;;;;;;4976013;28;20823;-54
2023/06/06 02:05:22;;;;;;;8.57;7.20;;;21.70;46.40;;;;;;4975796;28;20506;-55
2023/06/06 02:07:49;;;;;;;7.87;7.10;;;21.70;46.00;;;;;;4976128;28;20459;-54
2023/06/06 02:10:15;;;;;;;9.00;7.10;;;21.70;47.10;;;;;;4975642;28;20399;-54
2023/06/06 02:12:42;;;;;;;7.17;6.37;;;21.70;46.50;;;;;;4975823;28;20408;-58
2023/06/06 02:15:09;;;;;;;9.33;7.50;;;21.60;46.80;;;;;;4975790;28;20412;-57
2023/06/06 02:17:35;;;;;;;7.17;6.47;;;21.60;47.00;;;;;;4975676;28;20947;-56
2023/06/06 02:20:04;;;;;;;7.83;7.07;;;21.60;47.30;;;;;;4975522;28;20498;-57
2023/06/06 02:22:30;;;;;;;7.30;6.50;;;21.50;47.40;;;;;;4975693;28;20642;-53
2023/06/06 02:24:56;;;;;;;7.97;7.23;;;21.60;47.50;;;;;;4975577;28;21020;-58
2023/06/06 02:27:23;;;;;;;7.33;6.63;;;21.60;47.30;;;;;;4975689;28;20778;-57
2023/06/06 02:29:49;;;;;;;7.93;6.40;;;21.60;47.30;;;;;;4975670;28;20411;-54
2023/06/06 02:32:15;;;;;;;9.40;6.70;;;21.60;48.30;;;;;;4975634;28;20504;-53
2023/06/06 02:34:41;;;;;;;9.70;7.50;;;21.60;47.60;;;;;;4975417;28;20411;-55
2023/06/06 02:37:07;;;;;;;9.37;7.77;;;21.60;47.70;;;;;;4975464;28;20188;-53
2023/06/06 02:39:36;;;;;;;8.63;7.70;;;21.60;47.60;;;;;;4975188;28;20481;-59
2023/06/06 02:42:03;;;;;;;8.47;7.50;;;21.60;47.90;;;;;;4975654;28;20862;-54
2023/06/06 02:44:30;;;;;;;8.40;6.67;;;21.70;47.90;;;;;;4975332;28;20518;-53
2023/06/06 02:46:57;;;;;;;7.93;7.13;;;21.60;47.90;;;;;;4975213;28;20430;-57
2023/06/06 02:49:23;;;;;;;11.33;8.13;;;21.60;47.90;;;;;;4975206;28;20821;-56
2023/06/06 02:51:48;;;;;;;8.70;7.90;;;21.60;48.10;;;;;;4975233;28;20404;-54
2023/06/06 02:54:14;;;;;;;9.07;7.80;;;21.60;48.00;;;;;;4975057;28;20168;-54
2023/06/06 02:56:40;;;;;;;10.60;9.07;;;21.60;48.20;;;;;;4974992;28;20954;-56
2023/06/06 02:59:07;;;;;;;8.23;7.33;;;21.60;48.10;;;;;;4974877;28;20172;-55
2023/06/06 03:01:36;;;;;;;10.13;7.30;;;21.60;48.10;;;;;;4975178;28;20176;-56
2023/06/06 03:04:03;;;;;;;11.67;8.70;;;21.60;48.30;;;;;;4973830;28;20407;-54
2023/06/06 03:06:29;;;;;;;9.50;8.60;;;21.60;48.20;;;;;;4974841;28;20470;-54
2023/06/06 03:08:57;;;;;;;8.30;7.53;;;21.60;48.00;;;;;;4974596;28;20940;-58
2023/06/06 03:11:25;;;;;;;9.40;8.23;;;21.60;48.10;;;;;;4975104;28;20426;-56
2023/06/06 03:13:51;;;;;;;10.00;9.00;;;21.50;48.20;;;;;;4974872;28;20449;-57
2023/06/06 03:16:17;;;;;;;8.37;7.57;;;21.50;48.30;;;;;;4974902;28;20811;-54
2023/06/06 03:18:46;;;;;;;9.50;8.60;;;21.50;48.20;;;;;;4974620;28;20466;-56
2023/06/06 03:21:13;;;;;;;10.07;9.17;;;21.50;48.20;;;;;;4974864;28;20176;-55
2023/06/06 03:23:39;;;;;;;9.30;8.50;;;21.60;48.20;;;;;;4974731;28;20423;-55
2023/06/06 03:26:04;;;;;;;9.10;8.17;;;21.50;48.00;;;;;;4974694;28;20451;-56
2023/06/06 03:28:31;;;;;;;8.73;7.93;;;21.50;47.80;;;;;;4974457;28;20172;-59
2023/06/06 03:30:57;;;;;;;9.23;8.43;;;21.50;47.60;;;;;;4974373;28;20184;-55
2023/06/06 03:33:23;;;;;;;8.53;7.63;;;21.50;47.60;;;;;;4974409;28;20462;-55
2023/06/06 03:35:49;;;;;;;8.40;7.57;;;21.50;47.50;;;;;;4974371;28;20447;-57
2023/06/06 03:38:15;;;;;;;10.43;7.90;;;21.50;47.50;;;;;;4974116;28;20231;-55
2023/06/06 03:40:41;;;;;;;9.73;8.73;;;21.50;47.70;;;;;;4974081;28;20420;-54
2023/06/06 03:43:07;;;;;;;9.60;7.73;;;21.50;47.80;;;;;;4974192;28;20285;-57
2023/06/06 03:45:33;;;;;;;9.80;8.27;;;21.40;47.40;;;;;;4974365;28;20195;-54
2023/06/06 03:47:59;;;;;;;10.50;7.70;;;21.40;47.30;;;;;;4974053;28;20790;-58
2023/06/06 03:50:25;;;;;;;8.90;8.03;;;21.40;47.30;;;;;;4973858;28;20400;-57
2023/06/06 03:52:51;;;;;;;10.97;8.47;;;21.30;47.30;;;;;;4974216;28;20416;-55
2023/06/06 03:55:16;;;;;;;8.97;7.40;;;21.30;47.70;;;;;;4974203;28;20558;-57
2023/06/06 03:57:42;;;;;;;8.90;7.30;;;21.30;47.80;;;;;;4974006;28;20191;-55
2023/06/06 04:00:13;;;;;;;8.63;7.83;;;21.30;47.80;;;;;;4973661;28;20183;-55
2023/06/06 04:02:46;;;;;;;9.20;7.70;;;21.30;47.80;;;;;;4974227;28;20207;-55
2023/06/06 04:05:13;;;;;;;9.43;8.07;;;21.20;47.60;;;;;;4973688;28;20605;-55
2023/06/06 04:07:39;;;;;;;8.17;7.10;;;21.20;47.90;;;;;;4973747;28;20423;-57
2023/06/06 04:10:05;;;;;;;9.03;8.20;;;21.10;47.90;;;;;;4973529;28;20404;-55
2023/06/06 04:12:31;;;;;;;9.60;7.70;;;21.10;48.40;;;;;;4973734;28;20457;-54
2023/06/06 04:14:57;;;;;;;8.07;7.27;;;21.10;48.60;;;;;;4956215;28;20420;-54
2023/06/06 04:17:26;;;;;;;7.13;6.43;;;21.10;48.60;;;;;;4973618;28;20196;-57
2023/06/06 04:19:53;;;;;;;9.03;8.13;;;21.10;48.60;;;;;;4973281;28;20423;-54
2023/06/06 04:22:20;;;;;;;8.07;7.30;;;21.10;49.50;;;;;;4973518;28;20833;-55
2023/06/06 04:24:46;;;;;;;13.67;9.10;;;21.10;48.90;;;;;;4973771;28;20443;-56
2023/06/06 04:27:13;;;;;;;12.23;8.40;;;21.10;49.00;;;;;;4956125;28;20489;-52
2023/06/06 04:29:41;;;;;;;10.10;7.73;;;21.00;48.90;;;;;;4973202;28;20411;-58
2023/06/06 04:32:08;;;;;;;9.37;8.37;;;21.00;48.90;;;;;;4973597;28;20438;-55
2023/06/06 04:34:39;;;;;;;8.27;7.37;;;21.00;48.70;;;;;;4973707;28;20823;-55
2023/06/06 04:37:05;;;;;;;9.20;8.40;;;21.00;48.80;;;;;;4973300;28;20435;-57
2023/06/06 04:39:35;;;;;;;10.93;8.43;;;20.90;48.50;;;;;;4973153;28;20421;-59
2023/06/06 04:42:04;;;;;;;8.20;7.40;;;20.90;48.50;;;;;;4973313;28;20439;-54
2023/06/06 04:44:41;;;;;;;11.40;9.87;;;20.90;48.60;;;;;;4973141;28;20478;-56
2023/06/06 04:47:09;;;;;;;16.10;9.80;;;20.90;49.10;;;;;;4973362;28;20426;-56
2023/06/06 04:49:38;;;;;;;18.70;9.87;;;20.80;49.10;;;;;;4973218;28;20441;-55
2023/06/06 04:52:08;;;;;;;10.67;8.33;;;20.90;49.00;;;;;;4973043;28;20415;-57
2023/06/06 04:54:38;;;;;;;10.80;9.70;;;20.90;49.00;;;;;;4973198;28;20419;-54
2023/06/06 04:57:09;;;;;;;14.30;9.10;;;20.90;49.10;;;;;;4955950;28;20486;-55
2023/06/06 04:59:37;;;;;;;10.17;9.10;;;20.90;49.30;;;;;;4972950;28;20423;-58
2023/06/06 05:02:03;;;;;;;9.43;8.33;;;20.90;49.20;;;;;;4973343;28;20822;-58
2023/06/06 05:04:32;;;;;;;10.57;8.40;;;21.00;49.20;;;;;;4973023;28;20549;-56
2023/06/06 05:06:59;;;;;;;9.10;7.87;;;20.90;48.90;;;;;;4973099;28;20431;-58
2023/06/06 05:09:26;;;;;;;11.97;8.90;;;20.90;49.30;;;;;;4972785;28;20484;-56
2023/06/06 05:11:54;;;;;;;9.70;8.70;;;20.90;49.70;;;;;;4973069;28;20415;-55
2023/06/06 05:14:23;;;;;;;8.30;7.23;;;20.90;49.70;;;;;;4973171;28;20418;-57
2023/06/06 05:16:53;;;;;;;10.20;7.93;;;20.90;49.90;;;;;;4972906;28;20431;-55
2023/06/06 05:19:20;;;;;;;9.83;8.93;;;21.00;49.90;;;;;;4972763;28;20524;-57
2023/06/06 05:21:47;;;;;;;9.30;8.50;;;21.00;49.60;;;;;;4973099;28;20418;-59
2023/06/06 05:24:13;;;;;;;9.53;8.53;;;21.00;49.60;;;;;;4973033;28;20810;-56
2023/06/06 05:26:39;;;;;;;9.50;8.60;;;21.00;49.50;;;;;;4974379;28;20524;-58
2023/06/06 05:29:05;;;;;;;8.83;7.93;;;21.00;49.60;;;;;;4976530;28;20407;-56
2023/06/06 05:31:33;;;;;;;11.40;9.73;;;21.00;49.70;;;;;;4959184;28;20176;-55
2023/06/06 05:34:00;;;;;;;10.07;8.83;;;21.00;49.70;;;;;;4976510;28;20168;-55
2023/06/06 05:36:25;;;;;;;10.30;9.20;;;21.00;49.60;;;;;;4976683;28;20446;-57
2023/06/06 05:38:51;;;;;;;10.90;9.80;;;21.00;49.60;;;;;;4976440;28;20829;-56
2023/06/06 05:41:18;;;;;;;10.07;8.47;;;21.10;49.80;;;;;;4976306;28;20200;-56
2023/06/06 05:43:51;;;;;;;8.83;7.93;;;21.10;50.00;;;;;;4976496;28;20188;-58
2023/06/06 05:46:17;;;;;;;10.43;9.43;;;21.10;50.00;;;;;;4976209;28;20463;-55
2023/06/06 05:48:43;;;;;;;9.50;8.60;;;21.10;50.20;;;;;;4976178;28;20422;-55
2023/06/06 05:51:10;;;;;;;9.90;9.00;;;21.10;50.00;;;;;;4976004;28;20975;-59
2023/06/06 05:53:41;;;;;;;10.50;9.50;;;21.20;49.70;;;;;;4976302;28;20746;-58
2023/06/06 05:56:06;;;;;;;10.50;9.40;;;21.20;49.70;;;;;;4976382;28;20518;-55
2023/06/06 05:58:32;;;;;;;11.10;10.10;;;21.20;49.40;;;;;;4976178;28;20542;-57
2023/06/06 06:01:00;;;;;;;9.60;8.70;;;21.20;49.50;;;;;;4975847;28;21272;-54
2023/06/06 06:03:26;;;;;;;13.47;8.83;;;21.20;49.50;;;;;;4976116;28;20550;-55
2023/06/06 06:05:52;;;;;;;10.00;9.10;;;21.20;49.50;;;;;;4975953;28;20466;-57
2023/06/06 06:08:18;;;;;;;12.13;8.93;;;21.20;49.60;;;;;;4976009;28;20446;-55
2023/06/06 06:10:44;;;;;;;10.37;9.27;;;21.20;49.70;;;;;;4958429;28;20524;-59
2023/06/06 06:13:09;;;;;;;10.70;9.70;;;21.20;50.10;;;;;;4975825;28;20439;-56
2023/06/06 06:15:35;;;;;;;10.90;9.90;;;21.30;50.20;;;;;;4958629;28;20176;-54
2023/06/06 06:18:03;;;;;;;9.93;8.93;;;21.30;50.30;;;;;;4975726;28;20686;-57
2023/06/06 06:20:29;;;;;;;10.10;9.10;;;21.40;50.50;;;;;;4975495;28;20412;-54
2023/06/06 06:22:55;;;;;;;10.90;9.77;;;21.40;50.50;;;;;;4975674;28;20415;-54
2023/06/06 06:25:21;;;;;;;10.10;9.10;;;21.50;50.50;;;;;;4975791;28;20463;-58
2023/06/06 06:27:47;;;;;;;9.50;8.60;;;21.50;50.00;;;;;;4975692;28;20204;-57
2023/06/06 06:30:13;;;;;;;11.67;9.00;;;21.50;49.90;;;;;;4975568;28;20502;-55
2023/06/06 06:32:42;;;;;;;9.33;8.47;;;21.60;49.90;;;;;;4975464;28;20447;-58
2023/06/06 06:35:08;;;;;;;9.90;8.60;;;21.60;50.20;;;;;;4975337;28;20466;-55
2023/06/06 06:37:37;;;;;;;8.50;7.70;;;21.70;50.20;;;;;;4975192;28;20531;-54
2023/06/06 06:40:09;;;;;;;7.90;7.20;;;21.70;50.10;;;;;;4975183;28;20431;-59
2023/06/06 06:42:41;;;;;;;9.97;9.00;;;21.70;49.80;;;;;;4975706;28;20416;-56
2023/06/06 06:45:08;;;;;;;8.63;7.83;;;21.80;49.70;;;;;;4975499;28;20443;-54
2023/06/06 06:47:37;;;;;;;7.87;7.03;;;21.80;49.70;;;;;;4975007;28;20430;-58
2023/06/06 06:50:04;;;;;;;9.67;8.80;;;21.80;49.50;;;;;;4974929;28;20840;-58
2023/06/06 06:52:33;;;;;;;9.97;8.87;;;21.70;49.40;;;;;;4975431;28;20415;-54
2023/06/06 06:55:01;;;;;;;9.70;8.13;;;21.70;49.40;;;;;;4975298;28;20419;-58
2023/06/06 06:57:28;;;;;;;9.17;8.27;;;21.80;49.40;;;;;;4983199;28;20461;-54
2023/06/06 07:00:00;;;;;;;13.53;9.20;;;21.80;49.60;;;;;;4994180;28;20414;-57
2023/06/06 07:02:28;;;;;;;7.93;7.23;;;21.70;49.80;;;;;;4994401;28;20410;-54
2023/06/06 07:04:57;;;;;;;8.20;7.40;;;21.80;49.70;;;;;;4994061;28;20481;-59
2023/06/06 07:07:23;;;;;;;7.20;6.60;;;21.80;49.80;;;;;;4994326;28;20438;-58
2023/06/06 07:09:49;;;;;;;7.67;6.83;;;21.80;49.90;;;;;;4993977;28;20421;-56
2023/06/06 07:12:15;;;;;;;8.17;7.37;;;21.80;50.00;;;;;;4994180;28;20402;-55
2023/06/06 07:14:41;;;;;;;7.53;6.80;;;21.80;50.00;;;;;;4994124;28;20186;-58
2023/06/06 07:17:07;;;;;;;7.90;7.10;;;21.80;49.70;;;;;;4994241;28;20521;-55
2023/06/06 07:19:36;;;;;;;7.63;6.80;;;21.80;49.60;;;;;;4993827;28;20522;-56
2023/06/06 07:22:05;;;;;;;8.63;7.73;;;21.80;50.10;;;;;;4994211;28;20460;-57
2023/06/06 07:24:32;;;;;;;7.47;6.83;;;21.80;50.00;;;;;;4993926;28;20405;-54
2023/06/06 07:26:59;;;;;;;6.80;6.20;;;21.80;49.70;;;;;;4993814;28;20429;-58
2023/06/06 07:29:26;;;;;;;10.43;7.60;;;21.80;49.90;;;;;;4993828;28;20414;-58
2023/06/06 07:31:54;;;;;;;7.43;6.73;;;21.90;50.10;;;;;;4994116;28;20410;-55
2023/06/06 07:34:21;;;;;;;8.50;7.77;;;21.90;50.10;;;;;;4993974;28;20462;-57
2023/06/06 07:36:46;;;;;;;7.10;6.40;;;21.90;49.90;;;;;;4993896;28;20434;-54
2023/06/06 07:39:12;;;;;;;7.30;6.60;;;22.00;49.60;;;;;;4993441;28;20410;-59
2023/06/06 07:41:39;;;;;;;6.93;6.27;;;22.00;49.50;;;;;;4993887;28;20172;-54
2023/06/06 07:44:05;;;;;;;9.80;7.63;;;22.00;49.90;;;;;;4993547;28;20716;-55
2023/06/06 07:46:31;;;;;;;7.03;6.40;;;22.10;49.90;;;;;;4993603;28;20557;-56
2023/06/06 07:48:58;;;;;;;7.77;7.00;;;22.10;49.70;;;;;;4992932;28;20234;-54
2023/06/06 07:51:24;;;;;;;8.00;7.30;;;22.10;49.70;;;;;;4993311;28;20632;-55
2023/06/06 07:53:50;;;;;;;7.90;7.20;;;22.10;49.90;;;;;;4975965;28;20501;-55
2023/06/06 07:56:17;;;;;;;9.53;6.80;;;22.20;49.90;;;;;;4993195;28;20437;-55
2023/06/06 07:58:51;;;;;;;7.50;6.80;;;22.30;50.00;;;;;;4993357;28;20175;-57
2023/06/06 08:01:19;;;;;;;8.00;7.30;;;22.30;50.00;;;;;;4993005;28;20946;-55
2023/06/06 08:03:49;;;;;;;8.53;7.77;;;22.40;49.90;;;;;;4993206;28;20426;-54
2023/06/06 08:06:18;;;;;;;8.60;7.77;;;22.40;49.90;;;;;;4993056;28;20892;-56
2023/06/06 08:08:46;;;;;;;10.00;9.13;;;22.50;50.10;;;;;;4993065;28;20935;-55
2023/06/06 08:11:13;;;;;;;9.00;8.10;;;22.50;50.20;;;;;;4993074;28;20412;-55
2023/06/06 08:13:39;;;;;;;8.33;7.63;;;22.60;49.50;;;;;;4993225;28;20512;-55
2023/06/06 08:16:05;;;;;;;9.60;7.10;;;22.60;49.60;;;;;;4993195;28;20854;-59
2023/06/06 08:18:31;;;;;;;9.03;8.17;;;22.50;49.30;;;;;;4993009;28;20509;-53
2023/06/06 08:20:56;;;;;;;7.83;7.23;;;22.50;49.60;;;;;;4992830;28;20501;-58
2023/06/06 08:23:23;;;;;;;8.27;7.57;;;22.50;49.30;;;;;;4992953;28;20233;-54
2023/06/06 08:25:49;;;;;;;8.50;7.70;;;22.50;49.30;;;;;;4993059;28;20797;-55
2023/06/06 08:28:15;;;;;;;8.50;7.70;;;22.50;49.30;;;;;;4992879;28;20425;-56
2023/06/06 08:30:41;;;;;;;8.60;7.83;;;22.50;49.70;;;;;;4992652;28;20406;-55
2023/06/06 08:33:06;;;;;;;8.17;7.47;;;22.60;49.80;;;;;;4992930;28;20402;-55
2023/06/06 08:35:32;;;;;;;9.77;8.77;;;22.70;50.20;;;;;;4992728;28;20473;-57
2023/06/06 08:37:58;;;;;;;8.13;7.43;;;22.70;50.20;;;;;;4992666;28;20271;-58
2023/06/06 08:40:24;;;;;;;9.10;8.20;;;22.80;49.80;;;;;;4992540;28;20182;-54
2023/06/06 08:42:52;;;;;;;8.23;7.43;;;22.90;49.50;;;;;;4992921;28;20214;-54
2023/06/06 08:45:21;;;;;;;7.40;6.70;;;22.90;50.00;;;;;;4975145;28;20465;-56
2023/06/06 08:47:48;;;;;;;9.37;8.47;;;23.00;49.70;;;;;;4992816;28;20441;-57
2023/06/06 08:50:19;;;;;;;9.40;8.60;;;23.10;50.00;;;;;;4992544;28;20469;-55
2023/06/06 08:52:46;;;;;;;8.90;8.10;;;23.20;49.90;;;;;;4992597;28;20489;-57
2023/06/06 08:55:12;;;;;;;9.67;7.43;;;23.20;49.20;;;;;;4992817;28;20942;-59
2023/06/06 08:57:41;;;;;;;9.70;8.83;;;23.20;49.10;;;;;;4992527;28;20522;-56
2023/06/06 09:00:20;;;;;;;9.87;9.00;;;23.20;49.80;;;;;;4992279;28;20984;-58
2023/06/06 09:02:47;;;;;;;10.50;9.50;;;23.20;50.00;;;;;;4995984;28;20394;-55
2023/06/06 09:05:17;;;;;;;11.20;10.03;;;23.30;49.60;;;;;;4978869;28;20463;-57
2023/06/06 09:07:42;;;;;;;10.50;9.60;;;23.30;49.50;;;;;;4996487;28;20804;-57
2023/06/06 09:10:08;;;;;;;9.00;8.10;;;23.30;49.50;;;;;;4996236;28;20441;-55
2023/06/06 09:12:47;;;;;;;9.20;8.40;;;23.30;49.40;;;;;;4996411;28;20175;-55
2023/06/06 09:15:14;;;;;;;9.70;8.87;;;23.40;49.30;;;;;;4996240;28;20417;-54
2023/06/06 09:17:42;;;;;;;9.90;8.97;;;23.40;49.30;;;;;;4996151;28;20520;-59
2023/06/06 09:20:10;;;;;;;10.47;9.57;;;23.40;49.10;;;;;;4996041;28;20916;-57
2023/06/06 09:22:40;;;;;;;9.73;8.93;;;23.40;49.10;;;;;;4996199;28;20418;-55
2023/06/06 09:25:19;;;;;;;10.10;9.20;;;23.40;48.60;;;;;;4996015;28;20515;-58
2023/06/06 09:27:45;;;;;;;10.60;9.60;;;23.40;48.50;;;;;;4996283;28;20450;-58
2023/06/06 09:30:21;;;;;;;11.13;10.00;;;23.30;48.70;;;;;;4995668;28;20909;-55
2023/06/06 09:32:58;;;;;;;11.87;10.70;;;23.30;48.60;;;;;;4995994;28;20410;-58
2023/06/06 09:35:44;;;;;;;9.43;8.63;;;23.30;48.20;;;;;;4996033;28;20429;-56
2023/06/06 09:38:18;;;;;;;8.30;7.50;;;23.20;48.20;;;;;;4995405;28;20969;-55
2023/06/06 09:40:50;;;;;;;8.53;7.73;;;23.10;48.10;;;;;;4995623;28;20418;-57
2023/06/06 09:43:22;;;;;;;10.07;8.67;;;23.20;48.60;;;;;;4995840;28;20438;-53
2023/06/06 09:45:50;;;;;;;9.50;8.67;;;23.10;48.80;;;;;;4995614;28;20844;-55
2023/06/06 09:48:25;;;;;;;10.70;9.70;;;23.10;49.00;;;;;;4995705;28;20450;-58
2023/06/06 09:50:51;;;;;;;9.80;8.90;;;23.10;49.30;;;;;;4995434;28;20556;-56
2023/06/06 09:53:17;;;;;;;9.57;8.77;;;23.10;49.10;;;;;;4996165;28;20418;-59
2023/06/06 09:55:44;;;;;;;10.90;9.80;;;23.20;48.70;;;;;;4997808;28;20418;-57
2023/06/06 09:58:17;;;;;;;8.97;8.17;;;23.20;48.60;;;;;;4995807;28;20497;-55
2023/06/06 10:00:47;;;;;;;9.27;8.30;;;23.20;48.30;;;;;;4995884;28;20502;-57
2023/06/06 10:03:18;;;;;;;9.40;8.57;;;23.20;48.60;;;;;;4995563;28;20414;-56
2023/06/06 10:05:46;;;;;;;11.67;10.60;;;23.30;48.90;;;;;;4996979;28;20496;-56
2023/06/06 10:08:14;;;;;;;12.00;9.53;;;23.30;48.70;;;;;;4996374;28;20437;-54
2023/06/06 10:10:46;;;;;;;9.53;8.53;;;23.30;48.30;;;;;;4996103;28;20446;-56
2023/06/06 10:13:31;;;;;;;9.50;8.70;;;23.30;48.40;;;;;;4995618;28;20442;-54
2023/06/06 10:15:58;;;;;;;9.57;8.87;;;23.30;48.30;;;;;;4995390;28;20889;-55
2023/06/06 10:18:26;;;;;;;8.87;8.10;;;23.30;48.00;;;;;;4995473;28;20442;-57
2023/06/06 10:20:54;;;;;;;10.70;9.67;;;23.30;48.20;;;;;;4995864;28;20420;-58
2023/06/06 10:23:20;;;;;;;10.07;9.17;;;23.40;48.00;;;;;;4995824;28;20407;-55
2023/06/06 10:25:46;;;;;;;8.47;7.67;;;23.40;47.80;;;;;;4995868;28;20455;-57
2023/06/06 10:28:21;;;;;;;9.00;8.13;;;23.50;48.00;;;;;;4978113;28;20465;-55
2023/06/06 10:31:05;;;;;;;10.70;9.80;;;23.60;47.90;;;;;;4994829;28;20469;-52
2023/06/06 10:33:49;;;;;;;11.47;10.47;;;23.70;48.00;;;;;;4995526;28;20414;-56
2023/06/06 10:36:18;;;;;;;11.30;10.30;;;23.70;48.80;;;;;;4995427;28;20418;-52
2023/06/06 10:39:22;;;;;;;10.43;9.43;;;23.70;48.20;;;;;;4994752;28;20426;-55
2023/06/06 10:41:53;;;;;;;11.77;9.50;;;23.80;48.00;;;;;;4995197;28;20410;-52
2023/06/06 10:44:45;;;;;;;11.87;10.77;;;23.80;48.20;;;;;;4995209;28;20967;-53
2023/06/06 10:47:32;;;;;;;11.30;10.43;;;23.80;47.80;;;;;;4981636;28;20482;-55
2023/06/06 10:50:13;;;;;;;10.43;9.50;;;23.80;47.10;;;;;;4994577;28;20410;-55
2023/06/06 10:52:51;;;;;;;11.50;10.43;;;23.70;47.10;;;;;;4994847;28;20422;-54
2023/06/06 10:55:20;;;;;;;13.00;11.67;;;23.70;47.60;;;;;;4995499;28;20407;-53
2023/06/06 10:57:55;;;;;;;13.30;12.10;;;23.70;47.60;;;;;;4994959;28;20497;-52
2023/06/06 11:00:24;;;;;;;11.03;10.10;;;23.70;47.60;;;;;;4994996;28;20410;-57
2023/06/06 11:02:50;;;;;;;11.83;10.73;;;23.70;47.60;;;;;;4994941;28;20832;-56
2023/06/06 11:05:15;;;;;;;5.53;5.03;;;23.70;47.70;;;;;;4995514;28;20462;-54
2023/06/06 11:07:47;;;;;;;4.37;3.97;;;23.50;47.90;;;;;;4977930;28;20797;-53
2023/06/06 11:10:13;;;;;;;4.70;4.00;;;23.30;47.50;;;;;;4995511;28;20759;-55
2023/06/06 11:12:38;;;;;;;4.30;3.90;;;23.10;48.40;;;;;;4995407;28;20436;-55
2023/06/06 11:15:06;;;;;;;5.23;4.73;;;22.80;48.80;;;;;;4995123;28;20418;-51
2023/06/06 11:17:55;;;;;;;5.73;5.23;;;22.60;49.70;;;;;;4995562;28;20195;-53
2023/06/06 11:20:23;;;;;;;5.80;4.20;;;22.50;50.60;;;;;;4996321;28;20437;-55
2023/06/06 11:23:01;;;;;;;6.73;4.60;;;22.40;50.70;;;;;;4994584;28;21095;-51
2023/06/06 11:25:28;;;;;;;4.77;3.87;;;22.40;50.60;;;;;;4993429;28;20537;-55
2023/06/06 11:27:55;;;;;;;4.63;4.23;;;22.20;50.90;;;;;;4995049;28;20433;-53
2023/06/06 11:30:23;;;;;;;4.67;4.23;;;22.20;50.80;;;;;;4995342;28;20417;-52
2023/06/06 11:32:49;;;;;;;4.20;3.80;;;22.20;51.20;;;;;;4994997;28;20811;-56
2023/06/06 11:35:17;;;;;;;4.40;4.00;;;22.10;51.50;;;;;;4995523;28;20415;-55
2023/06/06 11:37:43;;;;;;;6.73;4.37;;;22.20;51.50;;;;;;4996647;28;20426;-54
2023/06/06 11:40:10;;;;;;;5.17;4.77;;;22.30;51.80;;;;;;4994302;28;20414;-54
2023/06/06 11:42:36;;;;;;;5.43;4.93;;;22.40;51.70;;;;;;4994286;28;20421;-53
2023/06/06 11:45:11;;;;;;;5.37;4.87;;;22.40;51.70;;;;;;4994693;28;20524;-58
2023/06/06 11:47:36;;;;;;;5.67;5.13;;;22.50;51.40;;;;;;4995136;28;20426;-54
2023/06/06 11:50:02;;;;;;;5.27;4.63;;;22.60;50.60;;;;;;4995773;28;20550;-56
2023/06/06 11:52:28;;;;;;;4.63;4.13;;;22.70;50.70;;;;;;4996018;28;20197;-59
2023/06/06 11:55:04;;;;;;;5.50;5.00;;;22.70;50.60;;;;;;4995592;28;20415;-58
2023/06/06 11:57:32;;;;;;;5.13;4.73;;;22.70;50.50;;;;;;4995393;28;20445;-60
2023/06/06 12:00:10;;;;;;;6.33;5.80;;;22.70;50.70;;;;;;4994525;28;20494;-55
2023/06/06 12:02:36;;;;;;;6.20;5.60;;;22.80;50.80;;;;;;4995109;28;20419;-57
2023/06/06 12:05:04;;;;;;;5.93;5.43;;;22.80;50.80;;;;;;4976620;28;20501;-57
2023/06/06 12:07:31;;;;;;;7.70;6.43;;;22.90;50.90;;;;;;4994605;28;20450;-56
2023/06/06 12:10:00;;;;;;;5.80;5.30;;;22.00;50.40;;;;;;4995310;28;20418;-57
2023/06/06 12:12:26;;;;;;;5.97;5.40;;;23.10;51.10;;;;;;4994072;28;20450;-55
2023/06/06 12:14:57;;;;;;;7.37;5.13;;;23.20;50.80;;;;;;4992949;28;20422;-58
2023/06/06 12:17:25;;;;;;;5.47;5.00;;;23.30;50.70;;;;;;4993720;28;20441;-55
2023/06/06 12:19:56;;;;;;;6.00;5.40;;;23.40;50.60;;;;;;4994789;28;20488;-53
2023/06/06 12:22:32;;;;;;;6.37;5.77;;;23.50;50.60;;;;;;4994353;28;20414;-57
2023/06/06 12:24:58;;;;;;;6.63;6.00;;;23.60;50.10;;;;;;4976454;28;20960;-56
2023/06/06 12:27:30;;;;;;;6.20;5.63;;;23.70;50.20;;;;;;4992880;28;20928;-59
2023/06/06 12:29:57;;;;;;;6.30;5.50;;;23.80;50.10;;;;;;4994620;28;20383;-56
2023/06/06 12:32:25;;;;;;;6.57;5.87;;;23.80;50.00;;;;;;4993327;28;20442;-56
2023/06/06 12:35:03;;;;;;;5.87;5.27;;;23.90;50.20;;;;;;4992849;28;20588;-59
2023/06/06 12:37:40;;;;;;;6.27;5.67;;;23.90;49.90;;;;;;4993105;28;20421;-55
2023/06/06 12:40:27;;;;;;;6.70;6.10;;;23.90;49.70;;;;;;4993279;28;20792;-57
2023/06/06 12:42:59;;;;;;;7.70;6.00;;;23.90;49.30;;;;;;4994088;28;20418;-57
2023/06/06 12:45:26;;;;;;;7.17;6.57;;;23.90;49.10;;;;;;4993192;28;20480;-54
2023/06/06 12:47:54;;;;;;;7.53;6.70;;;23.80;49.30;;;;;;4993742;28;20963;-56
2023/06/06 12:50:22;;;;;;;6.93;6.33;;;23.80;49.60;;;;;;4993649;28;20414;-58